This is the latest recevied weather packets stored in our database for station/object SR7U-1. If no packets are shown the sender has not sent any weather packets the latest 10 day(s).
| Time | Temp. | Humidity | Pressure | Rain* | Wind** | Luminosity | Snow |
|---|---|---|---|---|---|---|---|
| 1777536092 | 7.22° C | 40% | 1029.5 hPa | - | - | - | - |
| 1777535332 | 7.22° C | 43% | 1029.8 hPa | - | - | - | - |
| 1777534450 | 7.22° C | 42% | 1029.7 hPa | - | - | - | - |
| 1777533694 | 7.22° C | 43% | 1029.7 hPa | - | - | - | - |
| 1777532949 | 6.67° C | 45% | 1029.7 hPa | - | - | - | - |
| 1777532190 | 6.11° C | 47% | 1029.7 hPa | - | - | - | - |
| 1777531457 | 6.11° C | 47% | 1029.7 hPa | - | - | - | - |
| 1777530650 | 5.56° C | 52% | 1029.8 hPa | - | - | - | - |
| 1777529775 | 4.44° C | 54% | 1029.9 hPa | - | - | - | - |
| 1777529030 | 4.44° C | 55% | 1029.9 hPa | - | - | - | - |
| 1777528215 | 3.89° C | 54% | 1029.8 hPa | - | - | - | - |
| 1777527382 | 3.33° C | 56% | 1029.8 hPa | - | - | - | - |
| 1777526530 | 2.78° C | 57% | 1029.7 hPa | - | - | - | - |
| 1777525782 | 2.78° C | 59% | 1029.7 hPa | - | - | - | - |
| 1777525010 | 2.22° C | 60% | 1029.7 hPa | - | - | - | - |
| 1777524270 | 1.67° C | 62% | 1029.7 hPa | - | - | - | - |
| 1777523438 | 1.11° C | 65% | 1029.7 hPa | - | - | - | - |
| 1777522660 | 0.56° C | 67% | 1029.5 hPa | - | - | - | - |
| 1777521772 | 0.56° C | 67% | 1029.4 hPa | - | - | - | - |
| 1777521034 | -0.56° C | 72% | 1029.4 hPa | - | - | - | - |
| 1777520270 | -1.11° C | 72% | 1029.4 hPa | - | - | - | - |
| 1777519525 | -2.22° C | 78% | 1029.4 hPa | - | - | - | - |
| 1777518679 | -2.78° C | 81% | 1029.3 hPa | - | - | - | - |
| 1777517930 | -2.78° C | 78% | 1029.2 hPa | - | - | - | - |
| 1777517105 | -2.78° C | 78% | 1029.2 hPa | - | - | - | - |
* Rain since midnight (hover to see other rain measurements)
** Current wind speed in m/s (hover to see current wind gust speed)